createdAt,value
2019-06-07T00:01:16.466Z,62.30
2019-06-07T00:03:45.761Z,62.30
2019-06-07T00:06:20.367Z,62.60
2019-06-07T00:08:46.091Z,63.00
2019-06-07T00:11:18.611Z,63.30
2019-06-07T00:13:46.257Z,63.40
2019-06-07T00:16:22.791Z,63.30
2019-06-07T00:18:49.533Z,63.20
2019-06-07T00:21:20.495Z,63.20
2019-06-07T00:23:50.175Z,63.20
2019-06-07T00:26:21.305Z,63.60
2019-06-07T00:28:50.493Z,63.90
2019-06-07T00:31:24.073Z,64.00
2019-06-07T00:33:50.670Z,63.80
2019-06-07T00:36:22.933Z,63.70
2019-06-07T00:38:50.881Z,63.90
2019-06-07T00:41:22.237Z,64.20
2019-06-07T00:43:51.251Z,64.50
2019-06-07T00:46:21.668Z,64.60
2019-06-07T00:48:51.363Z,64.60
2019-06-07T00:51:21.918Z,64.80
2019-06-07T00:53:51.494Z,65.00
2019-06-07T00:56:22.164Z,65.00
2019-06-07T00:59:10.353Z,65.20
2019-06-07T01:01:25.384Z,65.40
2019-06-07T01:03:53.644Z,65.40
2019-06-07T01:06:24.816Z,65.50
2019-06-07T01:08:53.822Z,65.50
2019-06-07T01:11:25.822Z,65.50
2019-06-07T01:13:54.274Z,65.60
2019-06-07T01:16:24.323Z,65.90
2019-06-07T01:18:54.452Z,66.00
2019-06-07T01:21:29.710Z,66.30
2019-06-07T01:24:10.639Z,66.40
2019-06-07T01:26:30.390Z,66.50
2019-06-07T01:28:59.773Z,66.60
2019-06-07T01:31:31.661Z,66.70
2019-06-07T01:33:59.903Z,66.90
2019-06-07T01:36:31.020Z,66.90
2019-06-07T01:39:00.617Z,67.10
2019-06-07T01:41:30.688Z,67.20
2019-06-07T01:44:00.310Z,67.30
2019-06-07T01:46:29.601Z,67.50
2019-06-07T01:48:58.881Z,67.70
2019-06-07T01:51:30.696Z,67.70
2019-06-07T01:54:48.604Z,67.60
2019-06-07T01:56:30.244Z,68.50
2019-06-07T01:58:59.557Z,67.70
2019-06-07T02:01:34.712Z,67.80
2019-06-07T02:04:00.013Z,67.90
2019-06-07T02:06:31.915Z,68.00
2019-06-07T02:09:02.085Z,68.00
2019-06-07T02:11:31.969Z,68.10
2019-06-07T02:14:01.673Z,68.20
2019-06-07T02:16:32.583Z,68.50
2019-06-07T02:19:03.644Z,68.50
2019-06-07T02:21:35.919Z,68.30
2019-06-07T02:24:05.153Z,68.30
2019-06-07T02:26:34.761Z,68.10
2019-06-07T02:29:03.955Z,68.30
2019-06-07T02:31:39.274Z,68.60
2019-06-07T02:34:04.125Z,68.60
2019-06-07T02:36:41.001Z,68.90
2019-06-07T02:39:06.224Z,69.00
2019-06-07T02:41:39.724Z,68.80
2019-06-07T02:44:06.602Z,69.20
2019-06-07T02:46:45.878Z,69.20
2019-06-07T02:49:06.891Z,69.40
2019-06-07T02:51:41.475Z,69.40
2019-06-07T02:54:07.098Z,69.60
2019-06-07T02:56:52.470Z,69.80
2019-06-07T02:59:07.340Z,69.70
2019-06-07T03:01:41.866Z,69.80
2019-06-07T03:04:07.640Z,69.90
2019-06-07T03:06:40.445Z,69.90
2019-06-07T03:09:09.175Z,69.80
2019-06-07T03:11:41.568Z,69.60
2019-06-07T03:14:12.666Z,69.70
2019-06-07T03:16:49.903Z,69.60
2019-06-07T03:19:26.390Z,69.60
2019-06-07T03:21:55.675Z,69.60
2019-06-07T03:24:29.562Z,69.50
2019-06-07T03:29:28.921Z,69.50
2019-06-07T03:31:58.806Z,69.60
2019-06-07T03:34:32.191Z,69.60
2019-06-07T03:36:59.252Z,69.70
2019-06-07T03:39:29.468Z,69.80
2019-06-07T03:42:06.497Z,69.90
2019-06-07T03:44:32.981Z,70.00
2019-06-07T03:47:01.247Z,70.00
2019-06-07T03:49:31.588Z,70.00
2019-06-07T03:52:01.494Z,70.10
2019-06-07T03:54:32.088Z,70.20
2019-06-07T03:57:02.035Z,70.20
2019-06-07T03:59:35.779Z,70.20
2019-06-07T04:02:02.656Z,70.50
2019-06-07T04:04:32.465Z,70.60
2019-06-07T04:07:02.352Z,70.70
2019-06-07T04:09:35.069Z,70.80
2019-06-07T04:12:02.482Z,70.90
2019-06-07T04:14:32.883Z,70.90
2019-06-07T04:17:02.270Z,71.00
2019-06-07T04:19:32.339Z,70.90
2019-06-07T04:22:02.445Z,71.00
2019-06-07T04:24:33.802Z,71.10
2019-06-07T04:27:02.712Z,71.10
2019-06-07T04:29:37.007Z,71.20
2019-06-07T04:32:04.461Z,71.30
2019-06-07T04:34:37.478Z,71.50
2019-06-07T04:37:05.052Z,71.50
2019-06-07T04:39:37.784Z,71.50
2019-06-07T04:42:06.096Z,71.30
2019-06-07T04:44:41.072Z,71.30
2019-06-07T04:47:10.053Z,71.40
2019-06-07T04:49:43.836Z,71.20
2019-06-07T04:52:13.316Z,71.20
2019-06-07T04:54:45.916Z,71.20
2019-06-07T04:57:13.585Z,71.80
2019-06-07T05:00:11.374Z,71.10
2019-06-07T05:02:13.923Z,71.10
2019-06-07T05:04:44.184Z,71.30
2019-06-07T05:07:13.451Z,71.10
2019-06-07T05:09:43.421Z,70.80
2019-06-07T05:12:12.761Z,70.50
2019-06-07T05:14:44.088Z,70.50
2019-06-07T05:17:13.138Z,70.40
2019-06-07T05:19:44.525Z,70.20
2019-06-07T05:22:13.477Z,70.20
2019-06-07T05:24:43.886Z,70.20
2019-06-07T05:27:13.403Z,70.20
2019-06-07T05:29:44.294Z,70.10
2019-06-07T05:32:14.355Z,70.20
2019-06-07T05:34:47.463Z,70.20
2019-06-07T05:37:14.601Z,70.00
2019-06-07T05:39:46.552Z,69.80
2019-06-07T05:42:14.830Z,69.60
2019-06-07T05:44:45.894Z,69.40
2019-06-07T05:47:15.232Z,69.30
2019-06-07T05:49:46.993Z,69.20
2019-06-07T05:52:15.478Z,69.10
2019-06-07T05:54:46.832Z,69.00
2019-06-07T05:57:15.634Z,68.80
2019-06-07T05:59:47.393Z,68.70
2019-06-07T06:02:22.620Z,68.70
2019-06-07T06:04:49.237Z,68.70
2019-06-07T06:07:18.094Z,68.60
2019-06-07T06:09:47.671Z,68.70
2019-06-07T06:12:33.973Z,68.50
2019-06-07T06:14:47.986Z,68.50
2019-06-07T06:17:17.285Z,68.10
2019-06-07T06:19:50.378Z,67.70
2019-06-07T06:22:17.415Z,67.30
2019-06-07T06:25:16.940Z,66.90
2019-06-07T06:27:55.625Z,66.50
2019-06-07T06:29:50.428Z,66.40
2019-06-07T06:34:53.882Z,66.20
2019-06-07T06:37:21.637Z,65.70
2019-06-07T06:39:50.840Z,65.30
2019-06-07T06:42:20.033Z,65.40
2019-06-07T06:44:53.587Z,65.20
2019-06-07T06:47:20.240Z,65.20
2019-06-07T06:49:53.963Z,64.80
2019-06-07T06:52:20.637Z,64.50
2019-06-07T06:54:59.318Z,64.10
2019-06-07T06:57:20.929Z,63.60
2019-06-07T06:59:53.044Z,63.80
2019-06-07T07:02:22.326Z,64.10
2019-06-07T07:04:53.510Z,63.80
2019-06-07T07:07:22.970Z,63.20
2019-06-07T07:09:58.129Z,62.90
2019-06-07T07:12:23.160Z,62.80
2019-06-07T07:14:56.086Z,62.20
2019-06-07T07:17:46.955Z,62.00
2019-06-07T07:19:55.658Z,61.50
2019-06-07T07:22:25.191Z,61.00
2019-06-07T07:24:54.981Z,60.90
2019-06-07T07:27:24.401Z,59.90
2019-06-07T07:30:29.393Z,59.50
2019-06-07T07:32:24.672Z,59.40
2019-06-07T07:35:00.063Z,59.20
2019-06-07T07:37:24.818Z,59.20
2019-06-07T07:40:01.202Z,59.20
2019-06-07T07:42:24.979Z,59.40
2019-06-07T07:44:56.511Z,59.30
2019-06-07T07:47:25.123Z,59.10
2019-06-07T07:49:58.510Z,58.70
2019-06-07T07:52:25.360Z,58.20
2019-06-07T07:54:57.793Z,58.00
2019-06-07T07:57:25.588Z,57.70
2019-06-07T08:00:25.219Z,57.50
2019-06-07T08:02:25.949Z,57.60
2019-06-07T08:07:26.526Z,57.30
2019-06-07T08:10:00.196Z,57.40
2019-06-07T08:12:26.847Z,56.60
2019-06-07T08:15:02.352Z,55.80
2019-06-07T08:17:26.981Z,55.70
2019-06-07T08:19:57.564Z,55.50
2019-06-07T08:22:27.128Z,54.70
2019-06-07T08:24:59.876Z,54.00
2019-06-07T08:27:27.473Z,53.90
2019-06-07T08:30:15.647Z,53.20
2019-06-07T08:32:27.664Z,53.10
2019-06-07T08:35:03.361Z,53.50
2019-06-07T08:38:13.461Z,53.50
2019-06-07T08:40:01.596Z,53.70
2019-06-07T08:42:37.224Z,53.20
2019-06-07T08:45:05.301Z,53.30
2019-06-07T08:47:32.389Z,53.50
2019-06-07T08:50:07.467Z,53.60
2019-06-07T08:52:34.985Z,52.50
2019-06-07T08:55:05.417Z,52.80
2019-06-07T08:57:35.172Z,51.70
2019-06-07T09:00:29.325Z,51.30
2019-06-07T09:02:36.337Z,51.10
2019-06-07T09:05:12.156Z,51.70
2019-06-07T09:07:37.183Z,51.50
2019-06-07T09:10:12.783Z,51.40
2019-06-07T09:12:38.086Z,51.30
2019-06-07T09:15:20.861Z,51.70
2019-06-07T09:18:23.671Z,51.20
2019-06-07T09:20:35.115Z,50.50
2019-06-07T09:22:45.125Z,50.00
2019-06-07T09:25:20.879Z,48.70
2019-06-07T09:27:45.750Z,48.50
2019-06-07T09:30:22.063Z,48.60
2019-06-07T09:32:51.251Z,49.00
2019-06-07T09:35:20.459Z,48.10
2019-06-07T09:38:22.938Z,47.60
2019-06-07T09:40:27.772Z,47.60
2019-06-07T09:43:48.527Z,48.20
2019-06-07T09:45:26.243Z,48.10
2019-06-07T09:47:59.477Z,47.70
2019-06-07T09:50:29.550Z,48.10
2019-06-07T09:53:12.568Z,47.20
2019-06-07T09:55:30.047Z,46.80
2019-06-07T09:58:06.951Z,45.00
2019-06-07T10:00:40.759Z,45.30
2019-06-07T10:03:16.747Z,45.20
2019-06-07T10:05:35.715Z,44.70
2019-06-07T10:08:38.009Z,44.60
2019-06-07T10:10:36.241Z,44.80
2019-06-07T10:13:06.574Z,45.50
2019-06-07T10:15:36.643Z,45.40
2019-06-07T10:18:07.077Z,45.10
2019-06-07T10:20:36.473Z,45.40
2019-06-07T10:23:05.851Z,43.50
2019-06-07T10:25:35.234Z,44.00
2019-06-07T10:28:06.058Z,43.60
2019-06-07T10:30:35.491Z,43.30
2019-06-07T10:33:05.406Z,43.80
2019-06-07T10:35:38.764Z,43.90
2019-06-07T10:38:08.614Z,43.30
2019-06-07T10:40:37.930Z,44.20
2019-06-07T10:43:07.307Z,44.30
2019-06-07T10:45:36.599Z,43.70
2019-06-07T10:48:05.875Z,43.70
2019-06-07T10:50:35.259Z,43.50
2019-06-07T10:53:04.706Z,43.90
2019-06-07T10:55:33.982Z,44.30
2019-06-07T10:58:03.286Z,44.30
2019-06-07T11:00:32.634Z,44.30
2019-06-07T11:03:01.913Z,44.40
2019-06-07T11:05:31.177Z,43.60
2019-06-07T11:08:00.744Z,43.40
2019-06-07T11:10:30.066Z,44.20
2019-06-07T11:12:59.426Z,43.60
2019-06-07T11:15:28.871Z,43.30
2019-06-07T11:17:58.303Z,43.70
2019-06-07T11:20:27.655Z,44.10
2019-06-07T11:22:57.057Z,43.90
2019-06-07T11:25:26.388Z,44.20
2019-06-07T11:27:55.635Z,44.10
2019-06-07T11:30:24.923Z,44.10
2019-06-07T11:32:54.151Z,43.70
2019-06-07T11:35:23.344Z,43.40
2019-06-07T11:37:52.575Z,42.90
2019-06-07T11:40:33.962Z,42.70
2019-06-07T11:42:52.972Z,43.30
2019-06-07T11:45:22.454Z,43.80
2019-06-07T11:47:51.745Z,43.70
2019-06-07T11:50:20.966Z,43.80
2019-06-07T11:52:50.252Z,42.30
2019-06-07T11:55:19.483Z,41.90
2019-06-07T11:57:48.953Z,41.70
2019-06-07T12:00:20.502Z,41.90
2019-06-07T12:02:49.731Z,41.70
2019-06-07T12:05:20.421Z,41.90
2019-06-07T12:07:49.877Z,41.30
2019-06-07T12:10:22.446Z,41.90
2019-06-07T12:12:50.106Z,41.90
2019-06-07T12:15:19.456Z,41.20
2019-06-07T12:17:48.765Z,40.90
2019-06-07T12:20:19.581Z,40.70
2019-06-07T12:22:49.187Z,41.20
2019-06-07T12:25:21.583Z,41.20
2019-06-07T12:27:49.380Z,40.80
2019-06-07T12:30:26.242Z,40.90
2019-06-07T12:32:49.921Z,40.80
2019-06-07T12:35:19.966Z,40.30
2019-06-07T12:37:49.408Z,40.40
2019-06-07T12:40:27.645Z,40.00
2019-06-07T12:42:49.884Z,39.50
2019-06-07T12:45:40.143Z,38.30
2019-06-07T12:47:50.319Z,38.90
2019-06-07T12:50:21.662Z,38.00
2019-06-07T12:52:51.464Z,38.40
2019-06-07T12:55:22.766Z,36.90
2019-06-07T12:57:51.992Z,37.70
2019-06-07T13:00:22.333Z,37.90
2019-06-07T13:02:51.716Z,38.00
2019-06-07T13:05:21.744Z,38.40
2019-06-07T13:07:51.147Z,37.40
2019-06-07T13:10:21.947Z,37.60
2019-06-07T13:12:51.316Z,37.40
2019-06-07T13:15:22.642Z,37.40
2019-06-07T13:17:51.493Z,36.80
2019-06-07T13:20:22.616Z,37.00
2019-06-07T13:22:51.813Z,37.40
2019-06-07T13:25:23.104Z,37.30
2019-06-07T13:27:52.386Z,37.50
2019-06-07T13:30:23.441Z,37.90
2019-06-07T13:32:53.659Z,37.80
2019-06-07T13:35:23.764Z,38.00
2019-06-07T13:37:53.144Z,38.70
2019-06-07T13:40:23.361Z,38.30
2019-06-07T13:42:53.767Z,38.10
2019-06-07T13:45:24.287Z,37.60
2019-06-07T13:47:56.462Z,37.70
2019-06-07T13:50:26.055Z,38.00
2019-06-07T13:52:55.374Z,38.00
2019-06-07T13:55:25.866Z,38.10
2019-06-07T13:57:55.176Z,38.10
2019-06-07T14:00:24.897Z,38.10
2019-06-07T14:02:54.220Z,38.40
2019-06-07T14:05:25.027Z,38.00
2019-06-07T14:07:54.445Z,38.10
2019-06-07T14:10:23.734Z,38.50
2019-06-07T14:12:53.035Z,38.30
2019-06-07T14:15:22.453Z,38.20
2019-06-07T14:17:52.182Z,38.90
2019-06-07T14:20:26.647Z,39.50
2019-06-07T14:22:54.619Z,39.70
2019-06-07T14:25:25.151Z,39.20
2019-06-07T14:27:54.429Z,39.40
2019-06-07T14:30:25.962Z,39.50
2019-06-07T14:32:55.446Z,40.40
2019-06-07T14:35:26.606Z,41.40
2019-06-07T14:37:56.022Z,41.70
2019-06-07T14:40:25.443Z,43.10
2019-06-07T14:42:54.764Z,45.20
2019-06-07T14:45:25.458Z,46.30
2019-06-07T14:47:54.866Z,48.80
2019-06-07T14:50:24.213Z,50.80
2019-06-07T14:52:53.516Z,52.80
2019-06-07T14:55:22.803Z,53.30
2019-06-07T14:57:52.061Z,54.70
2019-06-07T15:00:24.245Z,55.60
2019-06-07T15:02:53.646Z,56.10
2019-06-07T15:05:31.192Z,56.50
2019-06-07T15:08:00.584Z,55.70
2019-06-07T15:10:31.939Z,55.10
2019-06-07T15:13:00.858Z,56.30
2019-06-07T15:15:30.788Z,57.10
2019-06-07T15:18:00.072Z,56.60
2019-06-07T15:20:30.488Z,56.30
2019-06-07T15:23:00.062Z,55.90
2019-06-07T15:25:29.422Z,56.10
2019-06-07T15:27:58.820Z,55.70
2019-06-07T15:30:28.026Z,54.60
2019-06-07T15:32:59.618Z,54.20
2019-06-07T15:35:28.282Z,53.60
2019-06-07T15:37:57.588Z,51.30
2019-06-07T15:40:26.935Z,51.00
2019-06-07T15:42:56.171Z,50.00
2019-06-07T15:45:25.496Z,49.10
2019-06-07T15:47:54.840Z,49.10
2019-06-07T15:50:24.122Z,49.00
2019-06-07T15:52:53.485Z,48.60
2019-06-07T15:55:22.767Z,50.00
2019-06-07T15:57:52.091Z,51.30
2019-06-07T16:00:21.704Z,52.00
2019-06-07T16:02:50.971Z,51.80
2019-06-07T16:05:20.241Z,52.20
2019-06-07T16:07:49.506Z,52.30
2019-06-07T16:10:18.985Z,52.90
2019-06-07T16:12:59.714Z,53.20
2019-06-07T16:15:20.907Z,53.90
2019-06-07T16:17:50.191Z,53.80
2019-06-07T16:20:19.767Z,54.20
2019-06-07T16:22:49.017Z,54.80
2019-06-07T16:25:18.549Z,55.30
2019-06-07T16:27:47.759Z,55.40
2019-06-07T16:30:19.850Z,55.50
2019-06-07T16:32:49.304Z,55.70
2019-06-07T16:35:18.601Z,55.70
2019-06-07T16:37:51.569Z,54.50
2019-06-07T16:40:19.789Z,53.70
2019-06-07T16:42:49.267Z,53.80
2019-06-07T16:45:18.826Z,53.90
2019-06-07T16:47:49.718Z,53.80
2019-06-07T16:50:19.352Z,54.10
2019-06-07T16:52:48.849Z,53.40
2019-06-07T16:55:18.051Z,52.70
2019-06-07T16:57:47.343Z,51.80
2019-06-07T17:00:17.148Z,51.20
2019-06-07T17:02:49.244Z,51.40
2019-06-07T17:05:19.228Z,51.60
2019-06-07T17:07:49.079Z,51.70
2019-06-07T17:10:18.737Z,52.00
2019-06-07T17:12:48.954Z,51.90
2019-06-07T17:15:19.254Z,52.40
2019-06-07T17:17:49.275Z,53.40
2019-06-07T17:20:18.821Z,54.60
2019-06-07T17:22:48.106Z,54.70
2019-06-07T17:25:17.429Z,55.80
2019-06-07T17:27:48.246Z,57.50
2019-06-07T17:30:18.334Z,58.50
2019-06-07T17:32:57.655Z,59.00
2019-06-07T17:35:18.543Z,59.80
2019-06-07T17:37:49.580Z,60.30
2019-06-07T17:40:19.017Z,60.30
2019-06-07T17:42:49.069Z,61.00
2019-06-07T17:45:20.218Z,62.50
2019-06-07T17:47:49.939Z,61.80
2019-06-07T17:50:19.390Z,61.40
2019-06-07T17:52:50.057Z,62.00
2019-06-07T17:55:19.416Z,62.30
2019-06-07T17:57:49.305Z,62.90
2019-06-07T18:00:34.847Z,63.40
2019-06-07T18:02:50.959Z,63.90
2019-06-07T18:05:20.461Z,62.60
2019-06-07T18:07:52.170Z,62.40
2019-06-07T18:10:36.297Z,62.70
2019-06-07T18:13:05.854Z,62.80
2019-06-07T18:15:40.999Z,62.60
2019-06-07T18:18:10.291Z,62.60
2019-06-07T18:20:42.219Z,62.60
2019-06-07T18:23:11.754Z,62.80
2019-06-07T18:25:41.044Z,62.60
2019-06-07T18:28:10.275Z,61.20
2019-06-07T18:30:39.589Z,60.50
2019-06-07T18:33:08.915Z,60.80
2019-06-07T18:35:38.403Z,61.30
2019-06-07T18:38:10.575Z,60.60
2019-06-07T18:40:38.635Z,60.40
2019-06-07T18:43:07.986Z,60.70
2019-06-07T18:45:37.355Z,61.10
2019-06-07T18:48:07.017Z,60.60
2019-06-07T18:50:36.355Z,60.60
2019-06-07T18:53:05.818Z,60.70
2019-06-07T18:55:35.112Z,60.70
2019-06-07T18:58:04.377Z,60.00
2019-06-07T19:00:34.751Z,59.90
2019-06-07T19:03:04.770Z,60.20
2019-06-07T19:05:34.211Z,59.70
2019-06-07T19:08:03.505Z,59.40
2019-06-07T19:10:32.776Z,59.40
2019-06-07T19:13:02.149Z,59.50
2019-06-07T19:15:31.446Z,59.20
2019-06-07T19:18:01.126Z,59.30
2019-06-07T19:20:30.498Z,58.60
2019-06-07T19:23:00.535Z,58.50
2019-06-07T19:25:30.022Z,58.40
2019-06-07T19:28:01.086Z,58.20
2019-06-07T19:30:30.795Z,58.00
2019-06-07T19:33:01.388Z,57.80
2019-06-07T19:35:30.870Z,57.80
2019-06-07T19:38:00.300Z,57.50
2019-06-07T19:40:29.824Z,57.10
2019-06-07T19:43:00.629Z,56.50
2019-06-07T19:45:31.677Z,56.80
2019-06-07T19:48:01.154Z,56.40
2019-06-07T19:50:30.500Z,56.40
2019-06-07T19:53:01.176Z,56.40
2019-06-07T19:55:30.603Z,56.30
2019-06-07T19:58:00.156Z,56.60
2019-06-07T20:00:29.845Z,56.50
2019-06-07T20:02:59.950Z,56.70
2019-06-07T20:05:29.348Z,56.50
2019-06-07T20:07:58.793Z,56.60
2019-06-07T20:10:28.098Z,56.40
2019-06-07T20:12:58.568Z,56.50
2019-06-07T20:15:29.588Z,56.30
2019-06-07T20:17:59.314Z,56.40
2019-06-07T20:20:30.070Z,56.40
2019-06-07T20:23:00.881Z,56.40
2019-06-07T20:25:30.432Z,56.50
2019-06-07T20:28:01.277Z,56.70
2019-06-07T20:30:31.452Z,56.60
2019-06-07T20:33:01.834Z,56.70
2019-06-07T20:35:31.320Z,56.70
2019-06-07T20:38:01.166Z,56.80
2019-06-07T20:40:30.526Z,56.50
2019-06-07T20:43:01.374Z,56.50
2019-06-07T20:45:34.007Z,56.60
2019-06-07T20:48:02.111Z,56.70
2019-06-07T20:50:31.517Z,56.60
2019-06-07T20:53:01.678Z,56.60
2019-06-07T20:55:32.252Z,56.60
2019-06-07T20:58:03.564Z,56.60
2019-06-07T21:00:33.178Z,56.90
2019-06-07T21:03:03.217Z,56.90
2019-06-07T21:05:32.786Z,56.90
2019-06-07T21:08:03.776Z,57.00
2019-06-07T21:10:33.624Z,57.30
2019-06-07T21:13:03.891Z,57.40
2019-06-07T21:15:47.652Z,57.50
2019-06-07T21:18:09.613Z,57.60
2019-06-07T21:20:35.198Z,57.50
2019-06-07T21:23:04.765Z,57.60
2019-06-07T21:25:34.102Z,57.60
2019-06-07T21:28:03.331Z,57.90
2019-06-07T21:30:32.792Z,57.90
2019-06-07T21:33:03.582Z,57.90
2019-06-07T21:35:32.956Z,58.20
2019-06-07T21:38:03.850Z,58.20
2019-06-07T21:40:33.549Z,58.40
2019-06-07T21:43:04.211Z,58.40
2019-06-07T21:45:35.382Z,58.30
2019-06-07T21:48:05.227Z,58.30
2019-06-07T21:50:35.527Z,58.40
2019-06-07T21:53:04.786Z,58.40
2019-06-07T21:55:34.114Z,58.40
2019-06-07T21:58:03.320Z,58.10
2019-06-07T22:01:09.970Z,58.30
2019-06-07T22:03:39.659Z,58.20
2019-06-07T22:06:09.693Z,58.40
2019-06-07T22:08:39.007Z,58.40
2019-06-07T22:11:08.344Z,58.40
2019-06-07T22:13:37.593Z,58.30
2019-06-07T22:16:21.388Z,58.40
2019-06-07T22:18:37.801Z,58.70
2019-06-07T22:21:06.972Z,58.90
2019-06-07T22:23:36.275Z,58.90
2019-06-07T22:26:07.009Z,58.80
2019-06-07T22:28:36.359Z,58.90
2019-06-07T22:31:06.429Z,59.00
2019-06-07T22:33:35.745Z,59.00
2019-06-07T22:36:04.945Z,59.10
2019-06-07T22:38:34.131Z,58.90
2019-06-07T22:41:03.444Z,58.80
2019-06-07T22:43:32.639Z,59.00
2019-06-07T22:46:02.020Z,59.40
2019-06-07T22:48:31.380Z,58.70
2019-06-07T22:51:02.356Z,58.80
2019-06-07T22:53:31.670Z,58.80
2019-06-07T22:56:07.719Z,58.70
2019-06-07T22:58:37.108Z,58.70
2019-06-07T23:01:06.502Z,58.60
2019-06-07T23:03:35.877Z,58.70
2019-06-07T23:06:05.172Z,58.90
2019-06-07T23:08:34.531Z,59.00
2019-06-07T23:11:03.756Z,59.70
2019-06-07T23:13:32.958Z,59.10
2019-06-07T23:16:02.194Z,59.20
2019-06-07T23:18:31.504Z,59.30
2019-06-07T23:21:00.727Z,59.30
2019-06-07T23:23:29.969Z,59.30
2019-06-07T23:25:59.538Z,59.40
2019-06-07T23:28:28.762Z,59.30
2019-06-07T23:30:58.250Z,59.20
2019-06-07T23:33:27.707Z,59.30
2019-06-07T23:35:56.981Z,59.40
2019-06-07T23:38:26.328Z,59.50
2019-06-07T23:40:55.557Z,59.30
2019-06-07T23:43:24.925Z,59.60
2019-06-07T23:45:54.303Z,59.60
2019-06-07T23:48:23.571Z,59.70
2019-06-07T23:50:52.784Z,59.90
2019-06-07T23:53:22.240Z,59.80
2019-06-07T23:55:51.579Z,59.90
2019-06-07T23:58:20.823Z,60.00
